Time;durP1;ratioP1;P1;durP2;ratioP2;P2;SDS_P1;SDS_P2;PMS_P1;PMS_P2;Temp;Humidity;BMP_temperature;BMP_pressure;BME280_temperature;BME280_humidity;BME280_pressure;Samples;Min_cycle;Max_cycle;Signal;HPM_P1;HPM_P2
2023/05/12 00:00:30;;;;;;;0.10;0.10;;;;;;;-145.06;100.00;95644.09;10365590;28;20121;-76
2023/05/12 00:05:30;;;;;;;0.10;0.10;;;;;;;-145.06;100.00;95609.28;10351422;28;20022;-77
2023/05/12 00:10:31;;;;;;;0.00;0.00;;;;;;;-145.06;100.00;95658.41;10358557;28;20339;-77
2023/05/12 00:15:31;;;;;;;0.10;0.10;;;;;;;-145.06;100.00;95668.63;10357291;28;20018;-77
2023/05/12 00:20:31;;;;;;;0.05;0.05;;;;;;;-145.06;100.00;95666.59;10361809;28;20048;-76
2023/05/12 00:25:32;;;;;;;0.10;0.10;;;;;;;-145.06;100.00;95635.91;10358857;28;20040;-76
2023/05/12 00:30:32;;;;;;;0.08;0.08;;;;;;;-145.06;100.00;95707.53;10358037;28;20030;-77
2023/05/12 00:35:33;;;;;;;0.10;0.10;;;;;;;-145.06;100.00;95713.66;10357943;28;20018;-76
2023/05/12 00:40:33;;;;;;;0.10;0.10;;;;;;;-145.06;100.00;95721.84;10347681;28;20023;-76
2023/05/12 00:45:33;;;;;;;0.00;0.00;;;;;;;-145.06;100.00;95730.03;10356003;28;20029;-76
2023/05/12 00:50:34;;;;;;;0.10;0.10;;;;;;;-145.06;100.00;95742.31;10356036;28;20125;-76
2023/05/12 00:55:36;;;;;;;0.10;0.10;;;;;;;-145.06;100.00;95691.16;10343770;28;20340;-76
2023/05/12 01:00:36;;;;;;;0.00;0.00;;;;;;;-145.06;100.00;95691.16;10351479;28;20053;-76
2023/05/12 01:05:55;;;;;;;0.10;0.10;;;;;;;-145.06;100.00;95691.16;10356667;28;20053;-76
2023/05/12 01:10:55;;;;;;;0.00;0.00;;;;;;;-145.06;100.00;95707.53;10381909;28;20045;-76
2023/05/12 01:15:59;;;;;;;0.10;0.10;;;;;;;-145.06;100.00;95711.63;10355495;28;20033;-76
2023/05/12 01:21:00;;;;;;;0.10;0.10;;;;;;;-145.06;100.00;95725.94;10361109;28;20496;-77
2023/05/12 01:26:06;;;;;;;0.10;0.10;;;;;;;-145.06;100.00;95723.91;10355975;28;20024;-76
2023/05/12 01:31:08;;;;;;;0.03;0.03;;;;;;;-145.06;100.00;95707.53;10353592;28;20030;-76
2023/05/12 01:36:08;;;;;;;0.10;0.10;;;;;;;-145.06;100.00;95756.63;10351856;23;20051;-78
2023/05/12 01:41:08;;;;;;;0.10;0.10;;;;;;;-145.06;100.00;95725.94;10325779;28;20030;-77
2023/05/12 01:46:09;;;;;;;0.00;0.00;;;;;;;-145.06;100.00;95752.53;10326286;28;20305;-78
2023/05/12 01:51:09;;;;;;;0.00;0.00;;;;;;;-145.06;100.00;95742.31;10304785;28;20775;-77
2023/05/12 01:56:10;;;;;;;0.00;0.00;;;;;;;-145.06;100.00;95695.25;10325274;28;20030;-78
2023/05/12 02:01:10;;;;;;;0.10;0.10;;;;;;;-145.06;100.00;95723.91;10323485;28;20029;-78
2023/05/12 02:06:10;;;;;;;0.10;0.10;;;;;;;-145.06;100.00;95697.28;10322248;28;20285;-77
2023/05/12 02:11:11;;;;;;;0.10;0.10;;;;;;;-145.06;100.00;95680.91;10331134;28;20025;-77
2023/05/12 02:16:11;;;;;;;0.10;0.10;;;;;;;-145.06;100.00;95691.16;10332506;28;20058;-77
2023/05/12 02:21:11;;;;;;;0.10;0.10;;;;;;;-145.06;100.00;95691.16;10330153;28;20045;-77
2023/05/12 02:26:12;;;;;;;0.00;0.00;;;;;;;-145.06;100.00;95676.81;10333337;28;20058;-77
2023/05/12 02:31:12;;;;;;;0.10;0.10;;;;;;;-145.06;100.00;95668.63;10331352;28;20027;-77
2023/05/12 02:36:12;;;;;;;0.10;0.10;;;;;;;-145.06;100.00;95662.50;10332299;28;20335;-76
2023/05/12 02:41:13;;;;;;;0.10;0.10;;;;;;;-145.06;100.00;95707.53;10329834;28;20033;-77
2023/05/12 02:46:13;;;;;;;0.10;0.10;;;;;;;-145.06;100.00;95719.81;10312429;28;20079;-77
2023/05/12 02:51:13;;;;;;;0.10;0.10;;;;;;;-145.06;100.00;95691.16;10329139;28;20018;-77
2023/05/12 02:56:15;;;;;;;0.10;0.10;;;;;;;-145.06;100.00;95719.81;10329850;28;20022;-77
2023/05/12 03:01:15;;;;;;;0.10;0.10;;;;;;;-145.06;100.00;95662.50;10332747;28;20026;-77
2023/05/12 03:06:15;;;;;;;0.10;0.10;;;;;;;-145.06;100.00;95642.03;10331337;28;20073;-77
2023/05/12 03:11:16;;;;;;;0.00;0.00;;;;;;;-145.06;100.00;95615.44;10309820;28;20703;-77
2023/05/12 03:16:17;;;;;;;0.10;0.10;;;;;;;-145.06;100.00;95605.19;10329093;28;20030;-77
2023/05/12 03:21:17;;;;;;;0.10;0.10;;;;;;;-145.06;100.00;95605.19;10327959;28;20026;-77
2023/05/12 03:26:18;;;;;;;0.10;0.10;;;;;;;-145.06;100.00;95615.44;10328797;28;20045;-77
2023/05/12 03:31:18;;;;;;;0.03;0.03;;;;;;;-145.06;100.00;95560.19;10327854;28;20413;-77
2023/05/12 03:36:31;;;;;;;0.10;0.10;;;;;;;-145.06;100.00;95560.19;10328241;28;20036;-77
2023/05/12 03:41:32;;;;;;;0.10;0.10;;;;;;;-145.06;100.00;95605.19;10326492;28;20373;-77
2023/05/12 03:46:32;;;;;;;0.10;0.10;;;;;;;-145.06;100.00;95592.91;10330958;28;20014;-77
2023/05/12 03:51:32;;;;;;;0.10;0.10;;;;;;;-145.06;100.00;95615.44;10329603;28;20393;-77
2023/05/12 03:56:33;;;;;;;0.00;0.00;;;;;;;-145.06;100.00;95617.47;10323565;28;20269;-78
2023/05/12 04:01:33;;;;;;;0.10;0.10;;;;;;;-145.06;100.00;95623.63;10290359;28;20018;-77
2023/05/12 04:06:35;;;;;;;0.10;0.10;;;;;;;-145.06;100.00;95588.84;10324898;28;20088;-77
2023/05/12 04:11:35;;;;;;;0.03;0.03;;;;;;;-145.06;100.00;95574.50;10321951;28;20475;-77
2023/05/12 04:16:36;;;;;;;0.10;0.10;;;;;;;-145.06;100.00;95568.38;10321555;28;20027;-77
2023/05/12 04:21:36;;;;;;;0.10;0.10;;;;;;;-145.06;100.00;95564.28;10320451;28;20032;-77
2023/05/12 04:26:36;;;;;;;0.10;0.10;;;;;;;-145.06;100.00;95486.50;10324759;28;20049;-77
2023/05/12 04:31:37;;;;;;;0.00;0.00;;;;;;;-145.06;100.00;95521.31;10321941;28;20015;-78
2023/05/12 04:36:37;;;;;;;0.10;0.10;;;;;;;-145.06;100.00;95496.75;10324649;28;20030;-77
2023/05/12 04:41:37;;;;;;;0.10;0.10;;;;;;;-145.06;100.00;95474.22;10324588;28;20014;-77
2023/05/12 04:46:38;;;;;;;0.10;0.10;;;;;;;-145.06;100.00;95427.16;10327913;28;20048;-77
2023/05/12 04:51:43;;;;;;;0.10;0.10;;;;;;;-145.06;100.00;95441.50;10325550;28;20278;-77
2023/05/12 04:56:43;;;;;;;0.10;0.10;;;;;;;-145.06;100.00;95396.47;10324079;28;20300;-77
2023/05/12 05:01:43;;;;;;;0.00;0.00;;;;;;;-145.06;100.00;95412.84;10322978;28;20477;-77
2023/05/12 05:06:44;;;;;;;0.10;0.10;;;;;;;-145.06;100.00;95388.28;10322990;28;20041;-77
2023/05/12 05:11:44;;;;;;;0.10;0.10;;;;;;;-145.06;100.00;95343.28;10323183;28;20089;-78
2023/05/12 05:16:45;;;;;;;0.10;0.10;;;;;;;-145.06;100.00;95302.34;10320921;28;20042;-78
2023/05/12 05:21:45;;;;;;;0.10;0.10;;;;;;;-145.06;100.00;95277.78;10322989;28;20022;-77
2023/05/12 05:26:46;;;;;;;0.10;0.10;;;;;;;-145.06;100.00;95273.69;10326970;28;20033;-77
2023/05/12 05:31:46;;;;;;;0.10;0.10;;;;;;;-145.06;100.00;95181.63;10324636;28;20070;-78
2023/05/12 05:36:46;;;;;;;0.00;0.00;;;;;;;-145.06;100.00;95007.72;10294456;28;20076;-78
2023/05/12 05:41:47;;;;;;;0.10;0.10;;;;;;;-145.06;100.00;94762.19;10327871;28;20038;-78
2023/05/12 05:46:47;;;;;;;0.10;0.10;;;;;;;-145.06;100.00;94623.06;10331786;28;20704;-77
2023/05/12 05:51:47;;;;;;;0.10;0.10;;;;;;;-145.06;100.00;94545.31;10330887;28;20362;-78
2023/05/12 05:56:47;;;;;;;0.10;0.10;;;;;;;-145.06;100.00;94449.16;10329722;28;20030;-77
2023/05/12 06:01:48;;;;;;;0.00;0.00;;;;;;;-145.06;100.00;94398.03;10331365;28;20030;-78
2023/05/12 06:06:48;;;;;;;0.10;0.10;;;;;;;-145.06;100.00;94381.66;10315212;28;20037;-77
2023/05/12 06:11:49;;;;;;;0.10;0.10;;;;;;;-145.06;100.00;94357.09;10332582;28;20103;-78
2023/05/12 06:16:49;;;;;;;0.00;0.00;;;;;;;-145.06;100.00;94350.97;10335269;28;20049;-78
2023/05/12 06:21:51;;;;;;;0.10;0.10;;;;;;;-145.06;100.00;94316.19;10330767;28;20494;-78
2023/05/12 06:26:51;;;;;;;0.10;0.10;;;;;;;-145.06;100.00;94258.91;10342464;28;20050;-77
2023/05/12 06:31:52;;;;;;;0.10;0.10;;;;;;;-145.06;100.00;94201.63;10331128;28;20018;-78
2023/05/12 06:36:52;;;;;;;0.10;0.10;;;;;;;-145.06;100.00;94183.22;10330031;28;20038;-77
2023/05/12 06:41:52;;;;;;;0.10;0.10;;;;;;;-145.06;100.00;94107.53;10310243;28;20126;-78
2023/05/12 06:46:52;;;;;;;0.10;0.10;;;;;;;-145.06;100.00;93988.88;10332381;28;20025;-78
2023/05/12 06:51:53;;;;;;;0.10;0.10;;;;;;;-145.06;100.00;93937.75;10332231;28;20048;-78
2023/05/12 06:56:53;;;;;;;0.10;0.10;;;;;;;-145.06;100.00;93892.75;10327822;28;20030;-77
2023/05/12 07:01:53;;;;;;;0.10;0.10;;;;;;;-145.06;100.00;93864.13;10326988;28;20030;-78
2023/05/12 07:06:55;;;;;;;0.10;0.10;;;;;;;-145.06;100.00;93829.34;10330105;28;20024;-78
2023/05/12 07:11:55;;;;;;;0.10;0.10;;;;;;;-145.06;100.00;93772.06;10322595;28;20496;-79
2023/05/12 07:16:56;;;;;;;0.03;0.03;;;;;;;-145.06;100.00;93743.44;10328801;28;20040;-78
2023/05/12 07:21:57;;;;;;;0.10;0.10;;;;;;;-145.06;99.78;93690.25;10313476;28;20018;-78
2023/05/12 07:26:57;;;;;;;0.10;0.10;;;;;;;-145.06;98.66;93727.06;10342194;28;20764;-78
2023/05/12 07:31:58;;;;;;;0.10;0.10;;;;;;;-145.06;95.95;93706.63;10310575;28;20022;-79
2023/05/12 07:37:01;;;;;;;0.10;0.10;;;;;;;-145.06;97.79;93698.44;10328171;28;20041;-78
2023/05/12 07:42:01;;;;;;;0.10;0.10;;;;;;;-145.06;96.03;93667.75;10376400;22;20057;-75
2023/05/12 07:47:01;;;;;;;0.10;0.10;;;;;;;-145.06;96.56;93632.97;10370427;28;20026;-77
2023/05/12 07:52:02;;;;;;;0.00;0.00;;;;;;;-145.06;92.20;93590.03;10348545;28;20030;-77
2023/05/12 07:57:03;;;;;;;0.10;0.10;;;;;;;-145.06;91.03;93516.41;10339298;28;20033;-77
2023/05/12 08:02:03;;;;;;;0.10;0.10;;;;;;;-145.06;88.04;93453.00;10352492;28;20108;-77
2023/05/12 08:07:03;;;;;;;0.10;0.10;;;;;;;-145.06;87.91;93358.91;10347391;28;20069;-77
2023/05/12 08:12:04;;;;;;;0.10;0.10;;;;;;;-145.06;88.14;93295.50;10330837;28;20023;-77
2023/05/12 08:17:05;;;;;;;0.00;0.00;;;;;;;-145.06;78.43;93117.56;10334926;28;20031;-77
2023/05/12 08:22:05;;;;;;;0.10;0.10;;;;;;;-145.06;78.29;93029.63;10349490;28;20021;-77
2023/05/12 08:27:06;;;;;;;0.10;0.10;;;;;;;-145.06;73.68;92953.97;10353181;28;20022;-77
2023/05/12 08:32:06;;;;;;;0.10;0.10;;;;;;;-145.06;74.08;92984.66;10357665;28;20473;-77
2023/05/12 08:37:06;;;;;;;0.10;0.10;;;;;;;-145.06;72.78;92974.41;10365217;28;20397;-76
2023/05/12 08:43:02;;;;;;;0.00;0.00;;;;;;;-145.06;71.91;92943.75;10357705;28;20021;-76
2023/05/12 08:48:05;;;;;;;0.00;0.00;;;;;;;-145.06;69.97;92784.25;10178488;29;20327;-76
2023/05/12 08:53:10;;;;;;;0.00;0.00;;;;;;;-145.06;70.08;92745.38;10311317;28;20353;-76
2023/05/12 08:58:11;;;;;;;0.00;0.00;;;;;;;-145.06;67.46;92600.19;10365114;28;20148;-76
2023/05/12 09:03:13;;;;;;;0.10;0.10;;;;;;;-145.06;67.86;92653.38;10363807;28;20033;-76
2023/05/12 09:08:14;;;;;;;0.00;0.00;;;;;;;-145.06;69.94;92712.66;10351127;28;20503;-76
2023/05/12 09:13:34;;;;;;;0.00;0.00;;;;;;;-145.06;70.06;92645.19;10341409;28;20018;-76
2023/05/12 09:18:55;;;;;;;0.00;0.00;;;;;;;-145.06;63.86;92667.69;10364630;28;20030;-76
2023/05/12 09:24:05;;;;;;;0.10;0.10;;;;;;;-145.06;62.04;92369.13;10368693;28;20030;-76
2023/05/12 09:29:06;;;;;;;0.00;0.00;;;;;;;-145.06;55.61;92172.84;10371577;28;20017;-76
2023/05/12 09:34:08;;;;;;;0.00;0.00;;;;;;;-145.06;53.62;92131.94;10367297;28;20037;-76
2023/05/12 09:39:09;;;;;;;0.00;0.00;;;;;;;-145.06;48.97;92044.03;10364872;28;20036;-76
2023/05/12 09:44:15;;;;;;;0.00;0.00;;;;;;;-145.06;49.42;92050.16;10362946;28;20050;-76
2023/05/12 09:49:25;;;;;;;0.00;0.00;;;;;;;-145.06;49.33;92009.28;10365278;28;20401;-76
2023/05/12 09:54:27;;;;;;;0.00;0.00;;;;;;;-145.06;47.48;91952.03;10357882;28;20026;-77
2023/05/12 09:59:31;;;;;;;0.00;0.00;;;;;;;-145.06;45.37;91921.38;10362102;28;20063;-76
2023/05/12 10:04:48;;;;;;;0.00;0.00;;;;;;;-145.06;42.18;91960.22;10374200;28;20017;-77
2023/05/12 10:09:49;;;;;;;0.00;0.00;;;;;;;-145.06;45.79;92015.41;10362811;28;20053;-76
2023/05/12 10:14:50;;;;;;;0.00;0.00;;;;;;;-145.06;41.65;91958.16;10361639;28;20047;-76
2023/05/12 10:19:51;;;;;;;0.10;0.10;;;;;;;-145.06;41.06;91958.16;10372152;28;20424;-76
2023/05/12 10:24:53;;;;;;;0.10;0.10;;;;;;;-145.06;40.04;91907.06;10362010;28;20392;-77
2023/05/12 10:30:01;;;;;;;0.00;0.00;;;;;;;-145.06;41.41;91986.78;10377526;28;20084;-76
2023/05/12 10:35:14;;;;;;;0.00;0.00;;;;;;;-145.06;38.66;91919.31;10355395;28;20121;-77
2023/05/12 10:40:24;;;;;;;0.10;0.10;;;;;;;-145.06;39.29;91966.34;10371346;28;20022;-76
2023/05/12 10:45:24;;;;;;;0.00;0.00;;;;;;;-145.06;38.58;91876.38;10352619;28;20370;-76
2023/05/12 10:50:26;;;;;;;0.00;0.00;;;;;;;-145.06;37.02;91778.25;10361494;28;20018;-76
2023/05/12 10:55:35;;;;;;;0.00;0.00;;;;;;;-145.06;35.78;91706.69;10334830;28;20029;-77
2023/05/12 11:00:49;;;;;;;0.00;0.00;;;;;;;-145.06;37.92;91782.34;10360951;28;20026;-76
2023/05/12 11:06:00;;;;;;;0.00;0.00;;;;;;;-145.06;35.13;91864.13;10366634;28;20030;-76
2023/05/12 11:11:01;;;;;;;0.10;0.10;;;;;;;-145.06;35.12;91680.13;10360799;28;20018;-76
2023/05/12 11:16:01;;;;;;;0.00;0.00;;;;;;;-145.06;36.54;91690.34;10383343;28;20037;-76
2023/05/12 11:21:08;;;;;;;0.00;0.00;;;;;;;-145.06;38.42;91741.44;10354827;28;20030;-77
2023/05/12 11:26:16;;;;;;;0.00;0.00;;;;;;;-145.06;37.72;92070.63;10348917;28;20099;-76
2023/05/12 11:31:21;;;;;;;0.10;0.10;;;;;;;-145.06;36.26;91770.06;10360276;28;20168;-76
2023/05/12 11:36:21;;;;;;;0.00;0.00;;;;;;;-145.06;34.94;91994.97;10342261;28;20026;-77
2023/05/12 11:41:25;;;;;;;0.00;0.00;;;;;;;-145.06;36.96;92168.75;10351682;28;20037;-76
2023/05/12 11:46:28;;;;;;;0.00;0.00;;;;;;;-145.06;37.12;92262.81;10367594;28;20438;-76
2023/05/12 11:51:30;;;;;;;0.10;0.10;;;;;;;-145.06;36.77;92348.69;10371862;28;20437;-76
2023/05/12 11:56:31;;;;;;;0.00;0.00;;;;;;;-145.06;37.88;91994.97;10355998;28;20424;-77
2023/05/12 12:01:33;;;;;;;0.00;0.00;;;;;;;-145.06;36.41;91886.59;10369160;28;20036;-76
2023/05/12 12:06:42;;;;;;;0.00;0.00;;;;;;;-145.06;37.53;91851.84;10368592;28;20018;-77
2023/05/12 12:11:43;;;;;;;0.00;0.00;;;;;;;-145.06;35.18;91911.13;10362135;28;20038;-77
2023/05/12 12:16:43;;;;;;;0.10;0.10;;;;;;;-145.06;35.29;91902.97;10361711;28;20369;-77
2023/05/12 12:21:46;;;;;;;0.00;0.00;;;;;;;-145.06;33.58;91874.34;10367828;28;20468;-77
2023/05/12 12:26:46;;;;;;;;;;;;;;;-145.06;35.73;91845.72;10353488;28;20021;-77
2023/05/12 12:31:47;;;;;;;0.00;0.00;;;;;;;-145.06;33.65;91817.09;10369010;28;20000;-76
2023/05/12 12:36:47;;;;;;;0.00;0.00;;;;;;;-145.06;34.24;91876.38;10371732;28;20029;-76
2023/05/12 12:41:48;;;;;;;0.10;0.10;;;;;;;-145.06;35.81;91939.75;10352721;28;20472;-76
2023/05/12 12:46:48;;;;;;;0.00;0.00;;;;;;;-145.06;34.69;91925.44;10352366;28;20033;-77
2023/05/12 12:51:49;;;;;;;0.00;0.00;;;;;;;-145.06;35.12;91911.13;10364426;28;20029;-76
2023/05/12 12:56:49;;;;;;;0.00;0.00;;;;;;;-145.06;36.80;91974.53;10342121;28;20022;-76
2023/05/12 13:01:50;;;;;;;0.00;0.00;;;;;;;-145.06;33.77;91862.06;10358223;28;20401;-76
2023/05/12 13:06:50;;;;;;;0.00;0.00;;;;;;;-145.06;34.04;91915.22;10362913;28;20077;-76
2023/05/12 13:11:50;;;;;;;0.10;0.10;;;;;;;-145.06;34.27;91849.81;10364793;28;20026;-77
2023/05/12 13:16:51;;;;;;;0.00;0.00;;;;;;;-145.06;34.56;91900.91;10354990;28;20026;-76
2023/05/12 13:21:52;;;;;;;0.00;0.00;;;;;;;-145.06;33.96;91866.16;10365623;28;20558;-76
2023/05/12 13:26:52;;;;;;;0.00;0.00;;;;;;;-145.06;33.34;91853.91;10357659;28;20032;-76
2023/05/12 13:31:53;;;;;;;0.00;0.00;;;;;;;-145.06;34.86;91907.06;10355455;28;20030;-76
2023/05/12 13:36:53;;;;;;;0.00;0.00;;;;;;;-145.06;35.76;91923.41;10357622;28;20026;-77
2023/05/12 13:41:53;;;;;;;0.10;0.10;;;;;;;-145.06;34.04;91847.75;10463281;23;20164;-74
2023/05/12 13:46:54;;;;;;;0.00;0.00;;;;;;;-145.06;34.93;91870.25;10354067;28;20112;-75
2023/05/12 13:51:54;;;;;;;0.00;0.00;;;;;;;-145.06;34.26;91864.13;10328475;28;20025;-75
2023/05/12 13:56:54;;;;;;;0.00;0.00;;;;;;;-145.06;34.52;91843.69;10348370;28;20041;-75
2023/05/12 14:01:54;;;;;;;0.00;0.00;;;;;;;-145.06;34.60;91866.16;10349390;28;20056;-74
2023/05/12 14:06:56;;;;;;;0.00;0.00;;;;;;;-145.06;34.36;91855.94;10343909;28;20400;-74
2023/05/12 14:11:57;;;;;;;0.00;0.00;;;;;;;-145.06;34.49;91866.16;10357493;28;20022;-77
2023/05/12 14:16:58;;;;;;;0.00;0.00;;;;;;;-145.06;33.29;91831.41;10359640;28;20022;-77
2023/05/12 14:21:58;;;;;;;0.00;0.00;;;;;;;-145.06;35.02;91890.69;10360974;28;20383;-77
2023/05/12 14:26:58;;;;;;;0.00;0.00;;;;;;;-145.06;34.92;91882.50;10349177;28;20017;-74
2023/05/12 14:31:59;;;;;;;0.00;0.00;;;;;;;-145.06;33.93;91823.22;10346134;28;20759;-76
2023/05/12 14:36:59;;;;;;;0.00;0.00;;;;;;;-145.06;34.09;91833.44;10357364;28;20037;-76
2023/05/12 14:41:59;;;;;;;0.00;0.00;;;;;;;-145.06;33.93;91823.22;10342080;28;20032;-77
2023/05/12 14:47:00;;;;;;;0.00;0.00;;;;;;;-145.06;35.18;91853.91;10362396;28;20029;-77
2023/05/12 14:52:01;;;;;;;0.00;0.00;;;;;;;-145.06;34.26;91782.34;10355721;28;20079;-77
2023/05/12 14:57:02;;;;;;;0.00;0.00;;;;;;;-145.06;34.27;91810.97;10348270;28;20084;-75
2023/05/12 15:02:03;;;;;;;0.10;0.10;;;;;;;-145.06;34.81;91825.28;10366367;28;20018;-76
2023/05/12 15:07:03;;;;;;;0.00;0.00;;;;;;;-145.06;33.32;91757.81;10359967;28;20014;-74
2023/05/12 15:12:04;;;;;;;0.00;0.00;;;;;;;-145.06;32.40;91723.06;10343899;28;20026;-75
2023/05/12 15:17:04;;;;;;;0.00;0.00;;;;;;;-145.06;32.19;91712.81;10340043;28;20172;-75
2023/05/12 15:22:06;;;;;;;0.10;0.10;;;;;;;-145.06;33.13;91759.84;10362132;28;20018;-77
2023/05/12 15:27:06;;;;;;;0.00;0.00;;;;;;;-145.06;32.69;91735.31;10373385;28;20072;-76
2023/05/12 15:32:07;;;;;;;0.00;0.00;;;;;;;-145.06;33.15;91710.78;10368131;28;20362;-76
2023/05/12 15:37:08;;;;;;;0.10;0.10;;;;;;;-145.06;33.22;91806.88;10356503;28;20029;-76
2023/05/12 15:42:09;;;;;;;0.00;0.00;;;;;;;-145.06;34.78;91855.94;10350567;28;20480;-76
2023/05/12 15:47:09;;;;;;;0.00;0.00;;;;;;;-145.06;34.49;91835.50;10359411;28;20072;-76
2023/05/12 15:52:10;;;;;;;0.00;0.00;;;;;;;-145.06;34.78;91935.69;10349846;28;20029;-76
2023/05/12 15:57:12;;;;;;;0.00;0.00;;;;;;;-145.06;36.37;92005.19;10335239;28;20083;-75
2023/05/12 16:02:12;;;;;;;0.00;0.00;;;;;;;-145.06;36.26;91962.25;10334563;28;20448;-76
2023/05/12 16:07:13;;;;;;;0.00;0.00;;;;;;;-145.06;37.13;92007.22;10359803;28;20018;-76
2023/05/12 16:12:14;;;;;;;0.10;0.10;;;;;;;-145.06;38.94;92103.31;10337249;28;20024;-76
2023/05/12 16:17:14;;;;;;;0.00;0.00;;;;;;;-145.06;38.00;92103.31;10363421;28;20014;-76
2023/05/12 16:22:14;;;;;;;0.00;0.00;;;;;;;-145.06;36.82;92099.25;10352740;28;20197;-75
2023/05/12 16:27:15;;;;;;;0.00;0.00;;;;;;;-145.06;38.27;92283.25;10357108;28;20470;-75
2023/05/12 16:32:16;;;;;;;0.10;0.10;;;;;;;-145.06;38.24;92524.53;10345133;28;20491;-76
2023/05/12 16:37:16;;;;;;;0.00;0.00;;;;;;;-145.06;40.37;92679.94;10331019;28;20038;-76
2023/05/12 16:42:16;;;;;;;0.00;0.00;;;;;;;-145.06;39.70;92696.31;10356427;28;20082;-76
2023/05/12 16:47:16;;;;;;;0.00;0.00;;;;;;;-145.06;40.90;92767.88;10357157;28;20075;-76
2023/05/12 16:52:17;;;;;;;0.00;0.00;;;;;;;-145.06;42.37;92843.53;10355729;28;20461;-76
2023/05/12 16:57:17;;;;;;;0.10;0.10;;;;;;;-145.06;42.55;92855.81;10361217;28;20037;-76
2023/05/12 17:02:18;;;;;;;0.00;0.00;;;;;;;-145.06;41.84;92821.03;10349084;28;20026;-75
2023/05/12 17:07:18;;;;;;;0.00;0.00;;;;;;;-145.06;43.20;92892.63;10356171;28;20032;-76
2023/05/12 17:12:18;;;;;;;0.10;0.10;;;;;;;-145.06;43.65;92945.78;10351431;28;20041;-76
2023/05/12 17:17:19;;;;;;;0.10;0.10;;;;;;;-145.06;45.34;92974.41;10363808;28;20022;-75
2023/05/12 17:22:20;;;;;;;0.10;0.10;;;;;;;-145.06;44.58;92951.94;10356409;28;20361;-76
2023/05/12 17:27:20;;;;;;;0.00;0.00;;;;;;;-145.06;43.82;92927.38;10361785;28;20029;-76
2023/05/12 17:32:20;;;;;;;0.00;0.00;;;;;;;-145.06;43.39;92933.53;10364480;28;20013;-76
2023/05/12 17:37:21;;;;;;;0.00;0.00;;;;;;;-145.06;43.50;92929.44;10337846;28;20117;-76
2023/05/12 17:42:21;;;;;;;0.00;0.00;;;;;;;-145.06;43.77;92980.56;10364025;28;20026;-76
2023/05/12 17:47:22;;;;;;;0.00;0.00;;;;;;;-145.06;45.46;93039.88;10345412;28;20022;-76
2023/05/12 17:52:22;;;;;;;0.10;0.10;;;;;;;-145.06;45.64;93015.31;10369241;28;20164;-76
2023/05/12 17:57:23;;;;;;;0.10;0.10;;;;;;;-145.06;45.36;93019.41;10367180;28;20025;-75
2023/05/12 18:02:23;;;;;;;0.00;0.00;;;;;;;-145.06;47.19;93113.50;10365436;28;20469;-76
2023/05/12 18:07:23;;;;;;;0.00;0.00;;;;;;;-145.06;48.33;93156.44;10348443;28;20428;-76
2023/05/12 18:12:24;;;;;;;0.10;0.10;;;;;;;-145.06;50.27;93221.88;10373636;28;20030;-75
2023/05/12 18:17:24;;;;;;;0.00;0.00;;;;;;;-145.06;50.93;93246.41;10384019;28;20029;-75
2023/05/12 18:22:25;;;;;;;0.10;0.10;;;;;;;-145.06;52.69;93262.78;10364506;28;20102;-75
2023/05/12 18:27:25;;;;;;;0.03;0.03;;;;;;;-145.06;55.08;93344.59;10343129;28;20022;-75
2023/05/12 18:32:26;;;;;;;0.10;0.10;;;;;;;-145.06;57.48;93448.91;10364124;28;20417;-75
2023/05/12 18:37:26;;;;;;;0.00;0.00;;;;;;;-145.06;60.11;93497.97;10341593;28;20261;-76
2023/05/12 18:42:27;;;;;;;0.08;0.08;;;;;;;-145.06;62.76;93569.56;10369862;28;20056;-77
2023/05/12 18:47:28;;;;;;;0.10;0.10;;;;;;;-145.06;63.96;93592.06;10352980;28;20104;-75
2023/05/12 18:52:28;;;;;;;0.10;0.10;;;;;;;-145.06;65.71;93643.22;10340625;28;20018;-75
2023/05/12 18:57:28;;;;;;;0.10;0.10;;;;;;;-145.06;67.78;93671.84;10367955;28;20091;-76
2023/05/12 19:02:29;;;;;;;0.10;0.10;;;;;;;-145.06;67.11;93661.63;10356072;28;20245;-75
2023/05/12 19:07:29;;;;;;;0.10;0.10;;;;;;;-145.06;64.66;93645.25;10371430;28;20025;-76
2023/05/12 19:12:29;;;;;;;0.10;0.10;;;;;;;-145.06;64.24;93663.66;10369342;28;20018;-75
2023/05/12 19:17:30;;;;;;;0.10;0.10;;;;;;;-145.06;64.73;93673.88;10370833;28;20486;-75
2023/05/12 19:22:30;;;;;;;0.10;0.10;;;;;;;-145.06;65.68;93708.66;10349113;28;20026;-75
2023/05/12 19:27:31;;;;;;;0.10;0.10;;;;;;;-145.06;64.26;93673.88;10347426;28;20034;-76
2023/05/12 19:32:31;;;;;;;0.10;0.10;;;;;;;-145.06;63.13;93653.44;10369559;28;20021;-77
2023/05/12 19:37:32;;;;;;;0.10;0.10;;;;;;;-145.06;63.94;93655.47;10380940;28;20033;-77
2023/05/12 19:42:41;;;;;;;0.10;0.10;;;;;;;-145.06;64.76;93698.44;10355004;28;20368;-77
2023/05/12 19:47:41;;;;;;;0.10;0.10;;;;;;;-145.06;65.14;93673.88;10370609;28;20026;-76
2023/05/12 19:52:41;;;;;;;0.10;0.10;;;;;;;-145.06;65.91;93677.97;10383389;28;20468;-77
2023/05/12 19:57:42;;;;;;;0.10;0.10;;;;;;;-145.06;66.68;93735.25;10315905;22;20310;-74
2023/05/12 20:02:43;;;;;;;0.08;0.08;;;;;;;-145.06;69.08;93780.25;10281422;28;20767;-74
2023/05/12 20:07:43;;;;;;;0.10;0.10;;;;;;;-145.06;70.26;93763.88;10279232;28;20077;-75
2023/05/12 20:12:43;;;;;;;0.10;0.10;;;;;;;-145.06;71.79;93800.69;10278363;28;20043;-74
2023/05/12 20:17:43;;;;;;;0.10;0.10;;;;;;;-145.06;73.65;93825.25;10283809;28;20026;-75
2023/05/12 20:22:44;;;;;;;0.10;0.10;;;;;;;-145.06;74.79;93837.53;10283639;28;20038;-74
2023/05/12 20:27:44;;;;;;;0.10;0.10;;;;;;;-145.06;76.71;93872.28;10266032;28;20038;-74
2023/05/12 20:32:44;;;;;;;0.03;0.03;;;;;;;-145.06;77.76;93872.28;10282392;28;20320;-74
2023/05/12 20:37:45;;;;;;;0.10;0.10;;;;;;;-145.06;79.43;93902.97;10282952;28;20042;-74
2023/05/12 20:42:46;;;;;;;0.00;0.00;;;;;;;-145.06;80.99;93980.72;10280787;28;20084;-74
2023/05/12 20:47:46;;;;;;;0.00;0.00;;;;;;;-145.06;83.75;93929.56;10283374;28;20135;-74
2023/05/12 20:52:48;;;;;;;0.10;0.10;;;;;;;-145.06;85.40;93941.84;10281423;28;20081;-74
2023/05/12 20:57:49;;;;;;;0.13;0.13;;;;;;;-145.06;87.85;93992.97;10282733;28;20039;-74
2023/05/12 21:02:50;;;;;;;0.10;0.10;;;;;;;-145.06;90.09;93992.97;10281645;28;20027;-74
2023/05/12 21:07:51;;;;;;;0.10;0.10;;;;;;;-145.06;91.54;94029.81;10259336;28;20398;-74
2023/05/12 21:12:51;;;;;;;0.10;0.10;;;;;;;-145.06;92.19;94037.97;10280989;28;20038;-74
2023/05/12 21:17:51;;;;;;;0.10;0.10;;;;;;;-145.06;94.23;94083.00;10263882;28;20477;-74
2023/05/12 21:22:52;;;;;;;0.10;0.10;;;;;;;-145.06;95.56;94056.41;10280947;28;20342;-74
2023/05/12 21:27:52;;;;;;;0.10;0.10;;;;;;;-145.06;97.08;94054.34;10281252;28;20027;-74
2023/05/12 21:32:55;;;;;;;0.10;0.10;;;;;;;-145.06;98.84;94050.25;10281367;28;20033;-74
2023/05/12 21:37:55;;;;;;;0.10;0.10;;;;;;;-145.06;100.00;94121.84;10280967;28;20286;-73
2023/05/12 21:42:55;;;;;;;0.10;0.10;;;;;;;-145.06;100.00;94099.34;10281076;28;20474;-75
2023/05/12 21:47:56;;;;;;;0.10;0.10;;;;;;;-145.06;100.00;94097.31;10284337;28;20378;-73
2023/05/12 21:52:56;;;;;;;0.10;0.10;;;;;;;-145.06;100.00;94148.44;10272930;28;20031;-73
2023/05/12 21:57:57;;;;;;;0.10;0.10;;;;;;;-145.06;100.00;94136.16;10281689;28;20034;-73
2023/05/12 22:02:57;;;;;;;0.00;0.00;;;;;;;-145.06;100.00;94134.13;10280960;28;20034;-72
2023/05/12 22:07:59;;;;;;;0.10;0.10;;;;;;;-145.06;100.00;94173.00;10284124;28;20045;-73
2023/05/12 22:12:59;;;;;;;0.10;0.10;;;;;;;-145.06;100.00;94187.31;10284487;28;20282;-73
2023/05/12 22:18:00;;;;;;;0.10;0.10;;;;;;;-145.06;100.00;94201.63;10282936;28;20393;-73
2023/05/12 22:23:00;;;;;;;0.10;0.10;;;;;;;-145.06;100.00;94246.63;10281859;28;20049;-75
2023/05/12 22:28:00;;;;;;;0.05;0.05;;;;;;;-145.06;100.00;94215.94;10289317;28;20330;-73
2023/05/12 22:33:01;;;;;;;0.00;0.00;;;;;;;-145.06;100.00;94267.09;10288546;28;20023;-74
2023/05/12 22:38:01;;;;;;;0.00;0.00;;;;;;;-145.06;100.00;94279.38;10288862;28;20051;-74
2023/05/12 22:43:02;;;;;;;0.10;0.10;;;;;;;-145.06;100.00;94267.09;10289675;28;20061;-74